createdAt,value
2017-11-24T00:00:16.837Z,3.57
2017-11-24T00:02:45.216Z,3.60
2017-11-24T00:05:13.564Z,3.67
2017-11-24T00:07:41.913Z,4.53
2017-11-24T00:10:10.249Z,3.30
2017-11-24T00:12:38.604Z,4.43
2017-11-24T00:15:06.976Z,3.60
2017-11-24T00:17:35.324Z,3.33
2017-11-24T00:20:03.664Z,3.40
2017-11-24T00:22:32.003Z,3.00
2017-11-24T00:25:00.344Z,3.53
2017-11-24T00:27:28.724Z,3.20
2017-11-24T00:29:57.066Z,3.73
2017-11-24T00:32:25.403Z,3.03
2017-11-24T00:34:53.744Z,4.90
2017-11-24T00:37:22.092Z,3.90
2017-11-24T00:39:50.489Z,3.17
2017-11-24T00:42:18.838Z,3.57
2017-11-24T00:44:47.212Z,2.70
2017-11-24T00:47:15.544Z,2.80
2017-11-24T00:49:43.876Z,2.50
2017-11-24T00:52:12.214Z,2.40
2017-11-24T00:54:40.554Z,1.93
2017-11-24T00:57:08.921Z,2.10
2017-11-24T00:59:37.252Z,2.70
2017-11-24T01:02:05.601Z,2.60
2017-11-24T01:04:33.937Z,2.70
2017-11-24T01:07:02.279Z,3.70
2017-11-24T01:09:30.667Z,2.63
2017-11-24T01:11:59.012Z,2.30
2017-11-24T01:14:27.376Z,3.33
2017-11-24T01:16:55.710Z,2.47
2017-11-24T01:19:24.048Z,2.90
2017-11-24T01:21:52.416Z,2.43
2017-11-24T01:24:20.747Z,3.27
2017-11-24T01:26:49.079Z,2.17
2017-11-24T01:29:17.428Z,2.87
2017-11-24T01:31:45.803Z,2.00
2017-11-24T01:34:14.152Z,3.10
2017-11-24T01:36:42.518Z,2.53
2017-11-24T01:39:10.873Z,2.50
2017-11-24T01:41:39.207Z,2.20
2017-11-24T01:44:07.554Z,2.53
2017-11-24T01:46:36.051Z,2.33
2017-11-24T01:49:04.383Z,2.50
2017-11-24T01:51:32.724Z,2.30
2017-11-24T01:54:01.060Z,2.10
2017-11-24T01:56:29.413Z,3.40
2017-11-24T01:58:57.782Z,1.67
2017-11-24T02:01:26.125Z,2.47
2017-11-24T02:03:54.470Z,2.00
2017-11-24T02:06:22.799Z,2.00
2017-11-24T02:08:51.136Z,1.70
2017-11-24T02:11:19.513Z,1.97
2017-11-24T02:13:47.860Z,2.37
2017-11-24T02:16:16.486Z,2.70
2017-11-24T02:18:44.830Z,2.20
2017-11-24T02:21:13.180Z,2.10
2017-11-24T02:23:41.550Z,2.40
2017-11-24T02:26:09.882Z,2.63
2017-11-24T02:28:38.237Z,2.07
2017-11-24T02:31:06.568Z,2.40
2017-11-24T02:33:34.923Z,2.60
2017-11-24T02:36:03.288Z,3.20
2017-11-24T02:38:31.632Z,2.67
2017-11-24T02:40:59.972Z,2.90
2017-11-24T02:43:28.317Z,3.40
2017-11-24T02:45:56.649Z,2.80
2017-11-24T02:48:25.120Z,3.30
2017-11-24T02:50:53.463Z,3.70
2017-11-24T02:53:21.801Z,3.03
2017-11-24T02:55:50.150Z,3.37
2017-11-24T02:58:18.507Z,2.50
2017-11-24T03:00:46.973Z,2.60
2017-11-24T03:03:15.323Z,3.57
2017-11-24T03:05:43.652Z,3.80
2017-11-24T03:08:12.008Z,3.87
2017-11-24T03:10:40.468Z,4.33
2017-11-24T03:13:08.811Z,5.40
2017-11-24T03:15:37.160Z,5.00
2017-11-24T03:18:05.511Z,5.00
2017-11-24T03:20:33.862Z,5.00
2017-11-24T03:23:02.272Z,5.40
2017-11-24T03:25:30.612Z,6.13
2017-11-24T03:27:58.974Z,4.30
2017-11-24T03:30:27.342Z,4.23
2017-11-24T03:32:55.708Z,4.20
2017-11-24T03:35:24.083Z,4.40
2017-11-24T03:37:52.455Z,3.90
2017-11-24T03:40:20.801Z,3.60
2017-11-24T03:42:49.149Z,4.07
2017-11-24T03:45:17.497Z,3.80
2017-11-24T03:47:45.848Z,3.40
2017-11-24T03:50:14.223Z,4.23
2017-11-24T03:52:42.590Z,3.73
2017-11-24T03:55:10.936Z,4.40
2017-11-24T03:57:39.282Z,3.90
2017-11-24T04:00:30.277Z,4.40
2017-11-24T04:02:58.659Z,4.57
2017-11-24T04:05:27.060Z,4.60
2017-11-24T04:07:55.399Z,4.47
2017-11-24T04:10:23.760Z,5.93
2017-11-24T04:12:52.134Z,5.57
2017-11-24T04:15:20.488Z,5.10
2017-11-24T04:17:48.840Z,5.10
2017-11-24T04:20:17.204Z,5.73
2017-11-24T04:22:45.550Z,5.93
2017-11-24T04:25:13.941Z,6.70
2017-11-24T04:27:42.303Z,6.23
2017-11-24T04:30:10.645Z,6.03
2017-11-24T04:32:38.994Z,7.30
2017-11-24T04:35:07.361Z,6.60
2017-11-24T04:37:35.995Z,6.03
2017-11-24T04:40:04.348Z,6.37
2017-11-24T04:42:32.713Z,6.17
2017-11-24T04:45:01.057Z,5.90
2017-11-24T04:47:29.402Z,7.00
2017-11-24T04:49:57.751Z,5.50
2017-11-24T04:52:26.100Z,5.70
2017-11-24T04:54:54.566Z,5.20
2017-11-24T04:57:22.912Z,4.87
2017-11-24T04:59:51.291Z,5.10
2017-11-24T05:02:19.634Z,5.30
2017-11-24T05:04:47.975Z,4.50
2017-11-24T05:07:16.445Z,5.03
2017-11-24T05:09:44.791Z,5.67
2017-11-24T05:12:13.135Z,5.77
2017-11-24T05:14:41.507Z,6.00
2017-11-24T05:17:09.855Z,6.10
2017-11-24T05:19:38.228Z,6.50
2017-11-24T05:22:06.592Z,5.40
2017-11-24T05:24:34.945Z,5.40
2017-11-24T05:27:03.284Z,5.90
2017-11-24T05:29:31.640Z,6.27
2017-11-24T05:32:00.047Z,6.07
2017-11-24T05:34:28.384Z,5.70
2017-11-24T05:36:56.751Z,4.70
2017-11-24T05:39:25.095Z,4.20
2017-11-24T05:41:53.436Z,4.47
2017-11-24T05:44:21.778Z,4.73
2017-11-24T05:46:50.127Z,4.60
2017-11-24T05:49:18.492Z,4.47
2017-11-24T05:51:46.844Z,5.30
2017-11-24T05:54:15.184Z,5.00
2017-11-24T05:56:43.525Z,4.40
2017-11-24T05:59:11.869Z,5.23
2017-11-24T06:01:40.243Z,5.40
2017-11-24T06:04:08.584Z,5.37
2017-11-24T06:06:36.926Z,6.13
2017-11-24T06:09:05.263Z,5.40
2017-11-24T06:11:33.610Z,5.80
2017-11-24T06:14:01.984Z,5.60
2017-11-24T06:16:30.316Z,6.00
2017-11-24T06:18:58.678Z,5.73
2017-11-24T06:21:27.213Z,5.20
2017-11-24T06:23:56.293Z,5.50
2017-11-24T06:26:24.702Z,4.80
2017-11-24T06:28:53.055Z,4.70
2017-11-24T06:31:21.393Z,5.97
2017-11-24T06:33:49.737Z,5.80
2017-11-24T06:36:18.096Z,5.20
2017-11-24T06:38:46.465Z,5.33
2017-11-24T06:41:14.806Z,4.70
2017-11-24T06:43:43.228Z,6.10
2017-11-24T06:46:11.577Z,4.80
2017-11-24T06:48:40.324Z,5.70
2017-11-24T06:51:08.709Z,4.97
2017-11-24T06:53:37.049Z,5.80
2017-11-24T06:56:05.383Z,5.10
2017-11-24T06:58:33.723Z,4.57
2017-11-24T07:01:02.067Z,4.70
2017-11-24T07:03:30.450Z,5.03
2017-11-24T07:05:58.798Z,5.80
2017-11-24T07:08:27.164Z,5.40
2017-11-24T07:10:55.497Z,5.00
2017-11-24T07:13:23.848Z,4.77
2017-11-24T07:15:52.213Z,5.20
2017-11-24T07:18:20.557Z,5.40
2017-11-24T07:20:48.924Z,4.90
2017-11-24T07:23:17.275Z,4.40
2017-11-24T07:25:45.600Z,5.17
2017-11-24T07:28:13.968Z,4.70
2017-11-24T07:30:42.309Z,4.63
2017-11-24T07:33:10.648Z,4.80
2017-11-24T07:35:38.996Z,5.07
2017-11-24T07:38:07.335Z,4.97
2017-11-24T07:40:35.711Z,5.50
2017-11-24T07:43:04.044Z,5.27
2017-11-24T07:45:32.391Z,5.37
2017-11-24T07:48:00.732Z,5.87
2017-11-24T07:50:29.073Z,5.60
2017-11-24T07:52:57.452Z,5.23
2017-11-24T07:55:25.795Z,5.57
2017-11-24T07:57:54.171Z,6.20
2017-11-24T08:00:22.511Z,6.40
2017-11-24T08:02:50.852Z,6.50
2017-11-24T08:05:19.275Z,5.50
2017-11-24T08:07:47.614Z,5.30
2017-11-24T08:10:16.837Z,6.10
2017-11-24T08:12:45.188Z,7.37
2017-11-24T08:15:13.534Z,2.70
2017-11-24T08:17:41.913Z,2.70
2017-11-24T08:20:10.264Z,3.23
2017-11-24T08:22:38.609Z,4.10
2017-11-24T08:25:06.951Z,5.50
2017-11-24T08:27:35.292Z,3.00
2017-11-24T08:30:03.685Z,2.60
2017-11-24T08:32:32.020Z,2.17
2017-11-24T08:35:00.364Z,2.53
2017-11-24T08:37:28.712Z,2.80
2017-11-24T08:39:57.065Z,2.10
2017-11-24T08:42:25.432Z,2.57
2017-11-24T08:44:53.774Z,2.60
2017-11-24T08:47:27.764Z,2.63
2017-11-24T08:49:56.101Z,2.50
2017-11-24T08:52:24.436Z,3.10
2017-11-24T08:54:52.775Z,6.93
2017-11-24T08:57:21.137Z,7.43
2017-11-24T08:59:49.515Z,7.30
2017-11-24T09:02:17.881Z,7.33
2017-11-24T09:04:46.219Z,6.07
2017-11-24T09:07:14.577Z,1.07
2017-11-24T09:09:42.912Z,0.60
2017-11-24T09:12:11.285Z,0.67
2017-11-24T09:14:39.631Z,0.40
2017-11-24T09:17:07.965Z,0.40
2017-11-24T09:19:36.313Z,0.50
2017-11-24T09:22:04.651Z,0.50
2017-11-24T09:24:33.031Z,0.50
2017-11-24T09:27:01.372Z,0.50
2017-11-24T09:29:29.712Z,0.50
2017-11-24T09:31:58.060Z,0.60
2017-11-24T09:34:26.399Z,0.60
2017-11-24T09:36:54.772Z,0.70
2017-11-24T09:39:23.104Z,0.70
2017-11-24T09:41:51.456Z,0.50
2017-11-24T09:44:19.794Z,0.40
2017-11-24T09:46:48.143Z,0.40
2017-11-24T09:49:16.519Z,0.90
2017-11-24T09:51:44.864Z,0.60
2017-11-24T09:54:13.211Z,0.50
2017-11-24T09:56:41.571Z,0.47
2017-11-24T09:59:09.912Z,0.50
2017-11-24T10:01:38.386Z,0.57
2017-11-24T10:04:06.717Z,1.60
2017-11-24T10:06:35.053Z,0.87
2017-11-24T10:09:03.395Z,0.90
2017-11-24T10:11:31.748Z,0.80
2017-11-24T10:14:00.224Z,0.70
2017-11-24T10:16:28.568Z,1.90
2017-11-24T10:18:56.910Z,1.30
2017-11-24T10:21:30.729Z,0.97
2017-11-24T10:23:59.071Z,0.80
2017-11-24T10:26:27.422Z,0.80
2017-11-24T10:28:55.784Z,1.70
2017-11-24T10:31:24.154Z,1.37
2017-11-24T10:33:52.492Z,0.97
2017-11-24T10:36:20.835Z,1.10
2017-11-24T10:38:49.176Z,0.70
2017-11-24T10:41:17.522Z,0.40
2017-11-24T10:43:45.904Z,1.40
2017-11-24T10:46:14.261Z,3.27
2017-11-24T10:48:42.638Z,0.60
2017-11-24T10:51:10.987Z,0.67
2017-11-24T10:53:39.331Z,0.70
2017-11-24T10:56:07.690Z,1.27
2017-11-24T10:58:36.027Z,0.80
2017-11-24T11:01:04.396Z,0.43
2017-11-24T11:03:32.744Z,0.30
2017-11-24T11:06:01.095Z,0.53
2017-11-24T11:08:29.441Z,0.50
2017-11-24T11:10:57.820Z,0.30
2017-11-24T11:13:26.170Z,2.07
2017-11-24T11:15:54.515Z,0.57
2017-11-24T11:18:22.858Z,1.10
2017-11-24T11:20:51.215Z,0.73
2017-11-24T11:23:19.597Z,0.70
2017-11-24T11:25:47.934Z,3.50
2017-11-24T11:28:16.276Z,2.00
2017-11-24T11:30:44.631Z,1.80
2017-11-24T11:33:12.980Z,0.80
2017-11-24T11:35:41.364Z,0.67
2017-11-24T11:38:09.702Z,0.80
2017-11-24T11:40:38.039Z,0.60
2017-11-24T11:43:06.386Z,0.60
2017-11-24T11:45:34.745Z,0.93
2017-11-24T11:48:03.109Z,1.10
2017-11-24T11:50:31.460Z,1.33
2017-11-24T11:52:59.791Z,1.50
2017-11-24T11:55:28.139Z,1.20
2017-11-24T11:57:56.480Z,2.20
2017-11-24T12:00:24.862Z,5.07
2017-11-24T12:02:53.215Z,3.07
2017-11-24T12:05:21.556Z,2.20
2017-11-24T12:07:49.909Z,1.43
2017-11-24T12:10:18.257Z,1.10
2017-11-24T12:12:46.642Z,1.20
2017-11-24T12:15:14.975Z,0.90
2017-11-24T12:17:43.330Z,0.90
2017-11-24T12:20:11.677Z,0.73
2017-11-24T12:22:40.012Z,0.93
2017-11-24T12:25:08.392Z,1.30
2017-11-24T12:27:36.737Z,1.40
2017-11-24T12:30:05.080Z,2.00
2017-11-24T12:32:33.427Z,2.50
2017-11-24T12:35:01.789Z,2.13
2017-11-24T12:37:30.168Z,1.90
2017-11-24T12:39:58.611Z,2.90
2017-11-24T12:42:26.958Z,2.80
2017-11-24T12:44:55.334Z,2.00
2017-11-24T12:47:23.689Z,1.70
2017-11-24T12:49:52.053Z,2.40
2017-11-24T12:52:20.404Z,1.90
2017-11-24T12:54:48.748Z,1.70
2017-11-24T12:57:17.128Z,1.93
2017-11-24T12:59:45.470Z,2.37
2017-11-24T13:02:13.827Z,2.83
2017-11-24T13:04:42.163Z,3.70
2017-11-24T13:07:10.660Z,3.97
2017-11-24T13:09:39.028Z,5.47
2017-11-24T13:12:07.384Z,5.63
2017-11-24T13:14:35.736Z,3.33
2017-11-24T13:17:04.071Z,4.40
2017-11-24T13:19:32.412Z,4.63
2017-11-24T13:22:00.781Z,4.17
2017-11-24T13:24:29.152Z,3.70
2017-11-24T13:26:57.491Z,4.00
2017-11-24T13:29:25.842Z,6.60
2017-11-24T13:31:54.177Z,6.57
2017-11-24T13:34:22.823Z,6.20
2017-11-24T13:36:51.200Z,7.80
2017-11-24T13:39:19.537Z,8.70
2017-11-24T13:41:47.887Z,9.17
2017-11-24T13:44:16.240Z,8.93
2017-11-24T13:46:45.475Z,8.77
2017-11-24T13:49:13.948Z,8.43
2017-11-24T13:51:42.298Z,8.43
2017-11-24T13:54:10.647Z,8.77
2017-11-24T13:56:38.983Z,8.10
2017-11-24T13:59:07.332Z,8.97
2017-11-24T14:01:35.672Z,8.10
2017-11-24T14:04:04.045Z,8.57
2017-11-24T14:06:32.392Z,8.10
2017-11-24T14:09:00.743Z,8.50
2017-11-24T14:11:29.080Z,9.53
2017-11-24T14:13:57.435Z,9.47
2017-11-24T14:16:25.799Z,9.00
2017-11-24T14:18:54.143Z,11.20
2017-11-24T14:21:22.505Z,8.80
2017-11-24T14:23:50.839Z,8.07
2017-11-24T14:26:19.180Z,8.40
2017-11-24T14:28:47.543Z,8.47
2017-11-24T14:31:15.889Z,7.43
2017-11-24T14:33:44.224Z,6.60
2017-11-24T14:36:12.570Z,7.20
2017-11-24T14:38:41.047Z,7.10
2017-11-24T14:41:09.388Z,7.40
2017-11-24T14:43:37.730Z,6.30
2017-11-24T14:46:06.092Z,8.27
2017-11-24T14:48:34.466Z,11.07
2017-11-24T14:51:02.974Z,8.13
2017-11-24T14:53:31.367Z,8.00
2017-11-24T14:55:59.700Z,7.27
2017-11-24T14:58:28.037Z,6.73
2017-11-24T15:00:56.393Z,6.87
2017-11-24T15:03:24.853Z,8.10
2017-11-24T15:05:53.200Z,7.87
2017-11-24T15:08:21.537Z,7.53
2017-11-24T15:10:49.872Z,7.80
2017-11-24T15:13:18.221Z,7.57
2017-11-24T15:15:46.606Z,8.70
2017-11-24T15:18:14.944Z,9.10
2017-11-24T15:20:43.284Z,8.90
2017-11-24T15:23:11.632Z,10.00
2017-11-24T15:25:39.980Z,7.67
2017-11-24T15:28:08.341Z,8.57
2017-11-24T15:30:36.681Z,6.93
2017-11-24T15:33:05.016Z,7.50
2017-11-24T15:35:33.365Z,6.23
2017-11-24T15:38:01.708Z,8.10
2017-11-24T15:40:30.076Z,7.53
2017-11-24T15:42:58.449Z,7.00
2017-11-24T15:45:26.824Z,7.90
2017-11-24T15:47:55.164Z,8.70
2017-11-24T15:50:23.509Z,7.43
2017-11-24T15:52:51.880Z,8.87
2017-11-24T15:55:20.224Z,8.27
2017-11-24T15:57:48.567Z,9.90
2017-11-24T16:00:16.925Z,10.30
2017-11-24T16:02:45.279Z,8.53
2017-11-24T16:05:13.647Z,7.30
2017-11-24T16:07:42.001Z,8.50
2017-11-24T16:10:10.350Z,7.83
2017-11-24T16:12:38.685Z,7.93
2017-11-24T16:15:07.025Z,9.93
2017-11-24T16:17:35.403Z,9.33
2017-11-24T16:20:03.744Z,13.37
2017-11-24T16:22:32.138Z,8.40
2017-11-24T16:25:00.483Z,8.87
2017-11-24T16:27:28.832Z,9.33
2017-11-24T16:29:57.306Z,7.83
2017-11-24T16:32:25.685Z,13.23
2017-11-24T16:34:54.104Z,13.07
2017-11-24T16:37:22.464Z,14.00
2017-11-24T16:39:50.803Z,9.53
2017-11-24T16:42:19.471Z,8.73
2017-11-24T16:44:48.075Z,8.37
2017-11-24T16:47:16.492Z,8.63
2017-11-24T16:49:44.845Z,8.50
2017-11-24T16:52:13.204Z,8.67
2017-11-24T16:54:41.575Z,8.60
2017-11-24T16:57:09.932Z,10.40
2017-11-24T16:59:38.284Z,13.97
2017-11-24T17:02:07.487Z,12.80
2017-11-24T17:04:35.828Z,12.53
2017-11-24T17:07:04.200Z,12.57
2017-11-24T17:09:32.558Z,13.97
2017-11-24T17:12:00.903Z,12.20
2017-11-24T17:14:29.252Z,11.33
2017-11-24T17:16:57.617Z,8.37
2017-11-24T17:19:26.071Z,7.67
2017-11-24T17:21:54.416Z,7.93
2017-11-24T17:24:22.751Z,8.20
2017-11-24T17:26:51.098Z,7.00
2017-11-24T17:29:19.437Z,8.43
2017-11-24T17:31:47.832Z,8.93
2017-11-24T17:34:16.181Z,10.07
2017-11-24T17:36:44.533Z,8.60
2017-11-24T17:39:12.880Z,7.37
2017-11-24T17:41:41.213Z,7.63
2017-11-24T17:44:09.583Z,7.63
2017-11-24T17:46:37.921Z,7.00
2017-11-24T17:49:06.273Z,6.07
2017-11-24T17:51:34.618Z,5.80
2017-11-24T17:54:02.970Z,6.40
2017-11-24T17:56:31.332Z,6.17
2017-11-24T17:58:59.664Z,5.60
2017-11-24T18:01:28.000Z,5.50
2017-11-24T18:03:56.345Z,4.80
2017-11-24T18:06:24.688Z,5.47
2017-11-24T18:08:53.039Z,5.33
2017-11-24T18:11:21.373Z,5.33
2017-11-24T18:13:49.711Z,5.57
2017-11-24T18:16:18.065Z,5.23
2017-11-24T18:18:46.404Z,5.57
2017-11-24T18:21:14.774Z,6.70
2017-11-24T18:23:43.118Z,6.90
2017-11-24T18:26:11.474Z,5.80
2017-11-24T18:28:39.807Z,7.57
2017-11-24T18:31:08.157Z,7.03
2017-11-24T18:33:36.622Z,7.60
2017-11-24T18:36:04.960Z,6.93
2017-11-24T18:38:33.304Z,7.33
2017-11-24T18:41:01.645Z,7.80
2017-11-24T18:43:29.984Z,7.37
2017-11-24T18:45:58.468Z,7.60
2017-11-24T18:48:26.813Z,7.40
2017-11-24T18:50:55.153Z,7.80
2017-11-24T18:53:23.492Z,8.80
2017-11-24T18:55:51.832Z,8.83
2017-11-24T18:58:20.205Z,8.87
2017-11-24T19:00:48.554Z,8.10
2017-11-24T19:03:16.923Z,8.50
2017-11-24T19:05:45.271Z,7.77
2017-11-24T19:08:13.625Z,7.47
2017-11-24T19:10:42.100Z,8.00
2017-11-24T19:13:10.444Z,7.20
2017-11-24T19:15:38.791Z,7.90
2017-11-24T19:18:07.130Z,8.67
2017-11-24T19:20:35.466Z,7.43
2017-11-24T19:23:03.834Z,7.37
2017-11-24T19:25:32.170Z,7.10
2017-11-24T19:28:00.524Z,8.13
2017-11-24T19:30:28.866Z,7.45
2017-11-24T19:32:57.225Z,7.85
2017-11-24T19:35:25.592Z,7.43
2017-11-24T19:37:53.936Z,8.03
2017-11-24T19:40:23.073Z,7.10
2017-11-24T19:42:51.403Z,7.87
2017-11-24T19:45:19.746Z,7.57
2017-11-24T19:47:48.244Z,7.70
2017-11-24T19:50:16.597Z,7.23
2017-11-24T19:52:44.939Z,7.07
2017-11-24T19:55:13.275Z,7.03
2017-11-24T19:57:41.628Z,7.35
2017-11-24T20:00:10.019Z,7.97
2017-11-24T20:02:38.351Z,7.40
2017-11-24T20:05:06.697Z,7.20
2017-11-24T20:07:35.046Z,7.10
2017-11-24T20:10:03.410Z,7.13
2017-11-24T20:12:31.779Z,7.17
2017-11-24T20:15:00.132Z,6.78
2017-11-24T20:17:28.471Z,7.17
2017-11-24T20:19:56.828Z,7.60
2017-11-24T20:22:25.327Z,7.25
2017-11-24T20:24:53.720Z,7.57
2017-11-24T20:27:22.071Z,8.50
2017-11-24T20:29:50.421Z,8.15
2017-11-24T20:32:18.781Z,7.80
2017-11-24T20:34:47.122Z,7.10
2017-11-24T20:37:15.510Z,8.43
2017-11-24T20:39:43.866Z,8.48
2017-11-24T20:42:12.337Z,10.30
2017-11-24T20:44:40.675Z,7.67
2017-11-24T20:47:09.022Z,6.77
2017-11-24T20:49:37.381Z,7.32
2017-11-24T20:52:05.732Z,8.13
2017-11-24T20:54:34.104Z,7.07
2017-11-24T20:57:02.444Z,8.60
2017-11-24T20:59:30.789Z,10.57
2017-11-24T21:01:59.136Z,7.73
2017-11-24T21:04:27.502Z,8.30
2017-11-24T21:06:55.859Z,9.10
2017-11-24T21:09:24.205Z,8.50
2017-11-24T21:11:52.571Z,8.60
2017-11-24T21:14:20.908Z,8.47
2017-11-24T21:16:49.282Z,8.40
2017-11-24T21:19:17.621Z,7.03
2017-11-24T21:21:45.972Z,7.43
2017-11-24T21:24:14.332Z,7.80
2017-11-24T21:26:42.683Z,7.80
2017-11-24T21:29:11.026Z,8.10
2017-11-24T21:31:39.367Z,7.20
2017-11-24T21:34:07.703Z,7.33
2017-11-24T21:36:36.073Z,7.90
2017-11-24T21:39:04.412Z,6.80
2017-11-24T21:41:32.747Z,7.00
2017-11-24T21:44:01.091Z,7.10
2017-11-24T21:46:29.440Z,6.87
2017-11-24T21:48:57.847Z,7.23
2017-11-24T21:51:26.200Z,6.30
2017-11-24T21:53:54.541Z,6.87
2017-11-24T21:56:22.880Z,7.77
2017-11-24T21:58:51.226Z,8.00
2017-11-24T22:01:19.616Z,8.70
2017-11-24T22:03:48.009Z,7.87
2017-11-24T22:06:16.344Z,7.77
2017-11-24T22:08:44.684Z,6.37
2017-11-24T22:11:13.024Z,5.53
2017-11-24T22:13:41.400Z,7.00
2017-11-24T22:16:09.740Z,6.80
2017-11-24T22:18:38.078Z,7.73
2017-11-24T22:21:06.428Z,7.10
2017-11-24T22:23:34.901Z,7.10
2017-11-24T22:26:03.424Z,6.80
2017-11-24T22:28:31.782Z,6.30
2017-11-24T22:31:00.131Z,7.10
2017-11-24T22:33:28.456Z,6.00
2017-11-24T22:35:56.792Z,5.60
2017-11-24T22:38:25.262Z,6.73
2017-11-24T22:40:53.601Z,6.77
2017-11-24T22:43:21.944Z,7.37
2017-11-24T22:45:50.281Z,6.73
2017-11-24T22:48:18.623Z,6.63
2017-11-24T22:50:46.987Z,6.77
2017-11-24T22:53:15.332Z,6.47
2017-11-24T22:55:43.673Z,6.80
2017-11-24T22:58:12.016Z,5.97
2017-11-24T23:00:40.352Z,6.50
2017-11-24T23:03:08.811Z,5.90
2017-11-24T23:05:37.159Z,7.30
2017-11-24T23:08:05.509Z,6.87
2017-11-24T23:10:33.850Z,7.00
2017-11-24T23:13:02.192Z,7.87
2017-11-24T23:15:30.660Z,7.60
2017-11-24T23:17:59.001Z,7.43
2017-11-24T23:20:27.343Z,7.70
2017-11-24T23:22:55.684Z,8.73
2017-11-24T23:25:24.025Z,7.10
2017-11-24T23:27:52.709Z,6.60
2017-11-24T23:30:21.111Z,5.37
2017-11-24T23:32:49.444Z,5.07
2017-11-24T23:35:17.777Z,5.60
2017-11-24T23:37:46.122Z,6.27
2017-11-24T23:40:14.535Z,6.33
2017-11-24T23:42:42.886Z,6.20
2017-11-24T23:45:11.218Z,5.50
2017-11-24T23:47:39.551Z,6.20
2017-11-24T23:50:07.884Z,5.30
2017-11-24T23:52:36.249Z,5.77
2017-11-24T23:55:04.590Z,6.07
2017-11-24T23:57:32.924Z,6.73
